DW8618 Nerja ES current weather conditions

sailwx.info

Wind from 340 at 11 knots gusting 19

Air temperature 17.2° C
Dewpoint 8.9° C

Last reported at 2019-Nov-11 22:01 UTC.
Time now 2019-Nov-11 22:34 UTC

Location: N 36°46' W 003°52'.
View on Google Maps.

See reports from other nearby stations

  
Tides and Currents Weather Stations Pressure Air Temp Water Temp Dewpoint Dewpoint Depression Visibility Wind Speed Wind Dir Waves Ship Positions
date/time (UTC)wind fromknots sea level pressurealtimeterstation pressurevisibilityair tempwater tempwave heightnotes
2019-Nov-11 22:01 340 11 gusting 19 17.2
2019-Nov-11 21:45 339 10 gusting 19 17.2
2019-Nov-11 21:31 332 8 gusting 18 17.2
2019-Nov-11 21:15 316 6 gusting 16 17.2
2019-Nov-11 21:01 322 6 gusting 12 17.2
2019-Nov-11 20:45 350 12 gusting 19 17.2
2019-Nov-11 20:30 296 6 gusting 13 17.2
2019-Nov-11 20:15 312 7 gusting 14 17.2
2019-Nov-11 20:01 323 7 gusting 14 17.2
2019-Nov-11 19:45 342 6 gusting 13 17.2
2019-Nov-11 19:30 360 6 gusting 20 17.2
2019-Nov-11 19:15 345 7 gusting 13 16.7
2019-Nov-11 19:01 005 3 gusting 13 16.7
2019-Nov-11 18:46 005 6 gusting 12 16.7
2019-Nov-11 18:30 340 6 gusting 12 17.2
2019-Nov-11 18:16 304 7 gusting 14 17.2
2019-Nov-11 18:01 005 3 gusting 7 17.2
2019-Nov-11 17:45 355 5 gusting 10 17.2
2019-Nov-11 17:30 302 7 gusting 13 17.2
2019-Nov-11 17:15 302 6 gusting 15 17.2
2019-Nov-11 17:01 292 6 gusting 14 17.2
2019-Nov-11 16:45 005 8 gusting 16 17.2
2019-Nov-11 16:30 023 9 gusting 15 17.2
2019-Nov-11 16:15 350 6 gusting 12 17.8
2019-Nov-11 16:01 329 7 gusting 14 17.8
2019-Nov-11 15:45 335 6 gusting 13 17.8
2019-Nov-11 15:30 028 6 gusting 13 18.3
2019-Nov-11 15:15 005 4 gusting 9 18.3
2019-Nov-11 15:01 005 4 gusting 9 18.3
2019-Nov-11 14:45 333 3 gusting 6 18.3
2019-Nov-11 14:30 019 4 gusting 9 18.3
2019-Nov-11 14:15 031 4 gusting 11 18.9
2019-Nov-11 14:01 325 4 gusting 8 18.9
2019-Nov-11 13:45 311 3 gusting 6 18.9
2019-Nov-11 13:30 269 5 gusting 9 18.9
2019-Nov-11 13:15 252 7 gusting 12 18.9
2019-Nov-11 13:01 303 3 gusting 7 18.3
2019-Nov-11 12:45 275 17.2
2019-Nov-11 12:31 264 2 gusting 6 16.1
2019-Nov-11 12:15 215 2 gusting 7 16.1
2019-Nov-11 12:01 257 3 gusting 9 16.1
2019-Nov-11 11:45 178 3 gusting 13 16.1
2019-Nov-11 11:30 254 5 gusting 13 15.6
2019-Nov-11 11:15 225 4 gusting 10 15.6
2019-Nov-11 11:01 200 4 gusting 8 15.6
2019-Nov-11 10:45 263 3 gusting 10 15.6
2019-Nov-11 10:30 336 5 gusting 9 16.1
2019-Nov-11 10:15 287 3 gusting 10 15.6
2019-Nov-11 10:01 306 5 gusting 8 15.6
2019-Nov-11 09:45 308 3 gusting 8 15.0
2019-Nov-11 09:30 298 6 gusting 12 15.0
2019-Nov-11 09:15 327 9 gusting 13 14.4
2019-Nov-11 09:01 306 7 gusting 14 14.4
2019-Nov-11 08:46 005 10 gusting 15 14.4
2019-Nov-11 08:30 314 10 gusting 18 14.4
2019-Nov-11 08:15 333 11 gusting 19 13.9
2019-Nov-11 08:01 310 10 gusting 15 13.9
2019-Nov-11 07:45 318 9 gusting 13 13.9
2019-Nov-11 07:31 327 6 gusting 10 13.3
2019-Nov-11 07:15 323 6 gusting 10 13.3
2019-Nov-11 07:01 349 6 gusting 8 13.3
2019-Nov-11 06:45 014 6 gusting 10 13.3
2019-Nov-11 06:30 337 6 gusting 10 13.3
2019-Nov-11 06:15 348 6 gusting 13 13.9
2019-Nov-11 06:01 322 8 gusting 14 13.9
2019-Nov-11 05:45 291 7 gusting 15 13.9
2019-Nov-11 05:31 292 6 gusting 13 13.9
2019-Nov-11 05:15 315 6 gusting 13 13.9
2019-Nov-11 05:01 319 3 gusting 11 13.9
2019-Nov-11 04:45 309 6 gusting 13 13.9
2019-Nov-11 04:31 302 7 gusting 14 13.9
2019-Nov-11 04:15 336 6 gusting 13 13.9
2019-Nov-11 04:01 329 6 gusting 12 13.9
2019-Nov-11 03:45 332 5 gusting 11 13.9
2019-Nov-11 03:30 316 6 gusting 10 14.4
2019-Nov-11 03:15 292 2 gusting 6 14.4
2019-Nov-11 03:01 298 5 gusting 7 14.4
2019-Nov-11 02:45 315 1 gusting 6 14.4
2019-Nov-11 02:30 321 5 gusting 11 14.4
2019-Nov-11 02:16 302 5 gusting 12 14.4
2019-Nov-11 02:01 297 9 gusting 14 14.4
2019-Nov-11 01:45 302 5 gusting 10 14.4
2019-Nov-11 01:30 306 5 gusting 8 14.4
2019-Nov-11 01:16 325 3 gusting 8 14.4
2019-Nov-11 01:01 273 2 gusting 5 14.4
2019-Nov-11 00:45 306 2 gusting 6 14.4
2019-Nov-11 00:30 217 1 gusting 5 14.4
2019-Nov-11 00:15 287 1 gusting 6 14.4
2019-Nov-11 00:01 303 5 gusting 9 14.4
2019-Nov-10 23:45 298 5 gusting 10 14.4
2019-Nov-10 23:30 259 3 gusting 8 14.4
2019-Nov-10 23:15 311 6 gusting 17 14.4
2019-Nov-10 23:01 275 6 gusting 14 14.4
2019-Nov-10 22:45 287 6 gusting 13 14.4
2019-Nov-10 22:30 009 3 gusting 7 14.4
2019-Nov-10 22:15 005 2 gusting 6 14.4
2019-Nov-10 22:01 360 0 gusting 4 14.4
2019-Nov-10 21:45 350 3 gusting 9 14.4
2019-Nov-10 21:30 005 4 gusting 11 14.4
2019-Nov-10 21:16 355 5 gusting 18 14.4
2019-Nov-10 21:01 258 3 gusting 7 14.4
2019-Nov-10 20:45 307 2 gusting 9 14.4
2019-Nov-10 20:30 309 4 gusting 14 15.0
2019-Nov-10 20:15 291 0 gusting 6 15.0
2019-Nov-10 20:01 290 3 gusting 11 15.0
2019-Nov-10 19:45 280 1 gusting 12 15.0
2019-Nov-10 19:30 252 4 gusting 14 15.0
2019-Nov-10 19:16 278 4 gusting 11 15.0
2019-Nov-10 19:01 293 6 gusting 16 15.0
2019-Nov-10 18:45 287 5 gusting 8 15.6
2019-Nov-10 18:30 277 4 gusting 9 15.6
2019-Nov-10 18:15 319 6 gusting 15 15.6
2019-Nov-10 18:01 324 5 gusting 13 15.6
2019-Nov-10 17:45 271 7 gusting 18 16.1
2019-Nov-10 17:30 282 7 gusting 16 16.1
2019-Nov-10 17:15 259 4 gusting 13 16.1
2019-Nov-10 17:01 256 10 gusting 19 16.1
2019-Nov-10 16:45 279 9 gusting 24 16.7
2019-Nov-10 16:30 302 9 gusting 19 16.7
2019-Nov-10 16:16 311 8 gusting 21 16.7
2019-Nov-10 16:01 284 11 gusting 19 17.2
2019-Nov-10 15:45 275 6 gusting 14 17.2
2019-Nov-10 15:30 260 7 gusting 13 17.2
2019-Nov-10 15:15 315 11 gusting 22 17.2
2019-Nov-10 15:01 347 9 gusting 16 18.3
2019-Nov-10 14:45 281 5 gusting 16 18.9
2019-Nov-10 14:30 290 9 gusting 19 18.9
2019-Nov-10 14:15 280 9 gusting 20 18.9
2019-Nov-10 14:01 178 3 gusting 9 18.9
2019-Nov-10 13:46 333 9 gusting 19 18.3
2019-Nov-10 13:30 325 3 gusting 15 18.9
2019-Nov-10 13:15 355 7 gusting 16 18.9
2019-Nov-10 13:01 036 6 gusting 17 18.9
2019-Nov-10 12:45 065 11 gusting 18 18.9
2019-Nov-10 12:30 304 8 gusting 18 18.9
2019-Nov-10 12:15 038 6 gusting 13 18.3
2019-Nov-10 12:01 013 6 gusting 20 18.3
2019-Nov-10 11:45 342 9 gusting 15 17.8
2019-Nov-10 11:31 355 7 gusting 20 17.8
2019-Nov-10 11:15 305 11 gusting 18 17.2
2019-Nov-10 11:01 285 12 gusting 24 17.2
2019-Nov-10 10:45 322 13 gusting 20 16.7
2019-Nov-10 10:30 346 5 gusting 22 16.7
2019-Nov-10 10:15 337 13 gusting 22 16.7
2019-Nov-10 10:01 273 15 gusting 32 16.7
2019-Nov-10 09:46 360 11 gusting 33 16.1
2019-Nov-10 09:30 335 14 gusting 28 16.1
2019-Nov-10 09:15 310 11 gusting 25 16.1
2019-Nov-10 09:01 303 10 gusting 26 16.1
2019-Nov-10 08:45 026 16 gusting 32 16.1
2019-Nov-10 08:30 036 13 gusting 31 16.1
2019-Nov-10 08:15 308 3 gusting 16 16.1
2019-Nov-10 08:01 068 15 gusting 26 16.1
2019-Nov-10 07:45 339 8 gusting 15 16.1
2019-Nov-10 07:30 360 9 gusting 17 16.1
2019-Nov-10 07:15 338 11 gusting 17 16.7
2019-Nov-10 07:01 324 5 gusting 9 16.7
2019-Nov-10 06:46 360 5 gusting 12 16.7
2019-Nov-10 06:30 340 10 gusting 15 16.7
2019-Nov-10 06:15 265 6 gusting 13 16.7
2019-Nov-10 06:01 297 5 gusting 13 16.7
2019-Nov-10 05:45 341 6 gusting 12 16.7
2019-Nov-10 05:30 289 6 gusting 13 16.7
2019-Nov-10 05:15 311 5 gusting 13 16.7
2019-Nov-10 05:01 319 8 gusting 13 16.7
2019-Nov-10 04:46 292 3 gusting 16 16.7
2019-Nov-10 04:30 257 3 gusting 13 16.7
2019-Nov-10 04:15 232 8 gusting 13 16.7
2019-Nov-10 04:01 284 12 gusting 19 16.7
2019-Nov-10 03:45 291 6 gusting 10 16.1
2019-Nov-10 03:31 288 6 gusting 14 16.1
2019-Nov-10 03:15 270 8 gusting 17 16.1
2019-Nov-10 03:01 241 8 gusting 14 16.1
2019-Nov-10 02:45 315 7 gusting 13 16.1
2019-Nov-10 02:31 292 8 gusting 15 16.1
2019-Nov-10 02:15 297 9 gusting 16 16.1
2019-Nov-10 02:01 317 12 gusting 20 16.7
2019-Nov-10 01:45 298 11 gusting 19 16.7
2019-Nov-10 01:30 296 8 gusting 15 17.2
2019-Nov-10 01:15 303 8 gusting 18 17.2
2019-Nov-10 01:01 320 12 gusting 18 17.2
2019-Nov-10 00:45 288 6 gusting 14 17.2
2019-Nov-10 00:30 290 4 gusting 8 16.1
2019-Nov-10 00:15 288 0 gusting 6 16.1
2019-Nov-10 00:01 269 4 gusting 10 16.1
2019-Nov-09 23:45 261 4 gusting 7 16.7
2019-Nov-09 23:30 286 3 gusting 10 16.7
2019-Nov-09 23:15 318 16.1
2019-Nov-09 23:01 192 15.6
2019-Nov-09 22:46 220 16.1
2019-Nov-09 22:30 134 15.6
2019-Nov-09 22:15 136 16.1
2019-Nov-09 22:01 025 16.1